Terminal Aerodrome Forecast
Issued by NWS Wakefield, VA

Home | Current Version | Previous Version | Text Only | Print | Product List | Glossary On
Versions: 1 2 3 4 5 6 7 8 9 10 11 12 13
000
FTUS41 KAKQ 301100 RRA
TAFRIC
TAF
KRIC 301141Z 3012/3112 34005KT P6SM SKC
      TEMPO 3012/3013 1/2SM FG BKN001
     FM301400 36008KT P6SM FEW050
     FM310000 02004KT P6SM SCT250=

USA.gov is the U.S. government's official web portal to all federal, state and local government web resources and services.